sensor_id;sensor_type;location;lat;lon;timestamp;pressure;altitude;pressure_sealevel;temperature;humidity
4590;BME280;2307;48.448;9.216;2023-04-27T00:00:24;95441.34;;;9.20;84.18
4590;BME280;2307;48.448;9.216;2023-04-27T00:02:51;95442.34;;;9.07;85.99
4590;BME280;2307;48.448;9.216;2023-04-27T00:05:17;95437.34;;;9.17;88.43
4590;BME280;2307;48.448;9.216;2023-04-27T00:07:44;95438.72;;;9.20;86.01
4590;BME280;2307;48.448;9.216;2023-04-27T00:10:10;95435.53;;;9.29;79.26
4590;BME280;2307;48.448;9.216;2023-04-27T00:12:37;95433.28;;;9.03;77.60
4590;BME280;2307;48.448;9.216;2023-04-27T00:15:03;95433.44;;;9.20;82.05
4590;BME280;2307;48.448;9.216;2023-04-27T00:17:32;95435.97;;;9.26;92.77
4590;BME280;2307;48.448;9.216;2023-04-27T00:19:58;95431.75;;;9.25;87.98
4590;BME280;2307;48.448;9.216;2023-04-27T00:22:25;95432.22;;;9.22;96.77
4590;BME280;2307;48.448;9.216;2023-04-27T00:24:52;95432.41;;;9.21;97.21
4590;BME280;2307;48.448;9.216;2023-04-27T00:27:18;95436.63;;;9.10;100.00
4590;BME280;2307;48.448;9.216;2023-04-27T00:29:44;95431.34;;;9.10;100.00
4590;BME280;2307;48.448;9.216;2023-04-27T00:32:11;95429.88;;;9.14;100.00
4590;BME280;2307;48.448;9.216;2023-04-27T00:34:39;95423.22;;;9.12;100.00
4590;BME280;2307;48.448;9.216;2023-04-27T00:37:05;95435.03;;;9.09;100.00
4590;BME280;2307;48.448;9.216;2023-04-27T00:39:32;95433.47;;;8.90;100.00
4590;BME280;2307;48.448;9.216;2023-04-27T00:41:59;95429.84;;;8.73;100.00
4590;BME280;2307;48.448;9.216;2023-04-27T00:44:26;95437.44;;;8.81;100.00
4590;BME280;2307;48.448;9.216;2023-04-27T00:46:52;95433.22;;;8.91;100.00
4590;BME280;2307;48.448;9.216;2023-04-27T00:49:19;95433.59;;;8.95;100.00
4590;BME280;2307;48.448;9.216;2023-04-27T00:51:47;95426.81;;;8.87;100.00
4590;BME280;2307;48.448;9.216;2023-04-27T00:54:14;95427.31;;;8.96;100.00
4590;BME280;2307;48.448;9.216;2023-04-27T00:56:40;95424.00;;;9.00;99.01
4590;BME280;2307;48.448;9.216;2023-04-27T00:59:07;95423.31;;;9.05;95.49
4590;BME280;2307;48.448;9.216;2023-04-27T01:01:33;95417.69;;;9.01;93.72
4590;BME280;2307;48.448;9.216;2023-04-27T01:04:00;95422.03;;;8.96;91.67
4590;BME280;2307;48.448;9.216;2023-04-27T01:06:26;95422.56;;;8.86;88.58
4590;BME280;2307;48.448;9.216;2023-04-27T01:08:55;95415.81;;;8.61;89.36
4590;BME280;2307;48.448;9.216;2023-04-27T01:11:21;95417.44;;;8.62;93.06
4590;BME280;2307;48.448;9.216;2023-04-27T01:13:48;95415.25;;;8.59;92.67
4590;BME280;2307;48.448;9.216;2023-04-27T01:16:16;95421.06;;;8.61;95.77
4590;BME280;2307;48.448;9.216;2023-04-27T01:18:42;95418.41;;;8.49;95.92
4590;BME280;2307;48.448;9.216;2023-04-27T01:21:09;95427.38;;;8.41;94.04
4590;BME280;2307;48.448;9.216;2023-04-27T01:23:37;95433.66;;;8.59;95.03
4590;BME280;2307;48.448;9.216;2023-04-27T01:26:04;95429.63;;;8.74;95.33
4590;BME280;2307;48.448;9.216;2023-04-27T01:28:30;95424.13;;;8.76;94.71
4590;BME280;2307;48.448;9.216;2023-04-27T01:30:57;95427.13;;;8.79;94.19
4590;BME280;2307;48.448;9.216;2023-04-27T01:33:23;95433.19;;;8.80;95.32
4590;BME280;2307;48.448;9.216;2023-04-27T01:35:50;95426.91;;;8.81;96.00
4590;BME280;2307;48.448;9.216;2023-04-27T01:38:16;95427.28;;;8.84;97.88
4590;BME280;2307;48.448;9.216;2023-04-27T01:40:44;95435.81;;;8.80;97.24
4590;BME280;2307;48.448;9.216;2023-04-27T01:43:10;95426.53;;;8.77;96.17
4590;BME280;2307;48.448;9.216;2023-04-27T01:45:36;95430.28;;;8.70;98.26
4590;BME280;2307;48.448;9.216;2023-04-27T01:48:03;95426.34;;;8.61;95.88
4590;BME280;2307;48.448;9.216;2023-04-27T01:50:30;95427.50;;;8.65;94.36
4590;BME280;2307;48.448;9.216;2023-04-27T01:52:56;95430.00;;;8.60;97.43
4590;BME280;2307;48.448;9.216;2023-04-27T01:55:23;95428.84;;;8.56;96.72
4590;BME280;2307;48.448;9.216;2023-04-27T01:57:50;95428.75;;;8.44;99.51
4590;BME280;2307;48.448;9.216;2023-04-27T02:00:17;95425.69;;;8.47;95.25
4590;BME280;2307;48.448;9.216;2023-04-27T02:02:44;95432.81;;;8.46;92.83
4590;BME280;2307;48.448;9.216;2023-04-27T02:05:10;95435.44;;;8.46;94.53
4590;BME280;2307;48.448;9.216;2023-04-27T02:07:36;95432.66;;;8.41;95.24
4590;BME280;2307;48.448;9.216;2023-04-27T02:10:03;95430.19;;;8.46;91.92
4590;BME280;2307;48.448;9.216;2023-04-27T02:12:29;95432.06;;;8.21;91.51
4590;BME280;2307;48.448;9.216;2023-04-27T02:14:57;95426.28;;;8.31;91.24
4590;BME280;2307;48.448;9.216;2023-04-27T02:17:24;95431.25;;;8.21;89.64
4590;BME280;2307;48.448;9.216;2023-04-27T02:19:50;95428.50;;;8.09;91.35
4590;BME280;2307;48.448;9.216;2023-04-27T02:22:17;95429.56;;;8.26;93.71
4590;BME280;2307;48.448;9.216;2023-04-27T02:24:43;95428.72;;;8.32;96.81
4590;BME280;2307;48.448;9.216;2023-04-27T02:27:10;95434.09;;;8.37;99.45
4590;BME280;2307;48.448;9.216;2023-04-27T02:29:36;95438.47;;;8.25;100.00
4590;BME280;2307;48.448;9.216;2023-04-27T02:32:05;95438.41;;;8.32;99.51
4590;BME280;2307;48.448;9.216;2023-04-27T02:34:31;95428.72;;;8.32;100.00
4590;BME280;2307;48.448;9.216;2023-04-27T02:36:58;95441.28;;;8.30;100.00
4590;BME280;2307;48.448;9.216;2023-04-27T02:39:24;95434.53;;;8.34;100.00
4590;BME280;2307;48.448;9.216;2023-04-27T02:41:51;95435.59;;;8.33;100.00
4590;BME280;2307;48.448;9.216;2023-04-27T02:44:17;95441.06;;;8.32;100.00
4590;BME280;2307;48.448;9.216;2023-04-27T02:46:43;95439.66;;;8.29;100.00
4590;BME280;2307;48.448;9.216;2023-04-27T02:49:11;95446.56;;;8.30;100.00
4590;BME280;2307;48.448;9.216;2023-04-27T02:51:38;95443.78;;;8.19;99.95
4590;BME280;2307;48.448;9.216;2023-04-27T02:54:04;95439.47;;;8.06;98.60
4590;BME280;2307;48.448;9.216;2023-04-27T02:56:30;95448.41;;;8.05;99.51
4590;BME280;2307;48.448;9.216;2023-04-27T02:58:57;95449.84;;;8.19;100.00
4590;BME280;2307;48.448;9.216;2023-04-27T03:01:23;95447.97;;;8.26;100.00
4590;BME280;2307;48.448;9.216;2023-04-27T03:03:50;95440.53;;;8.23;100.00
4590;BME280;2307;48.448;9.216;2023-04-27T03:06:17;95441.53;;;8.22;100.00
4590;BME280;2307;48.448;9.216;2023-04-27T03:08:44;95444.13;;;8.29;100.00
4590;BME280;2307;48.448;9.216;2023-04-27T03:11:10;95441.28;;;8.30;100.00
4590;BME280;2307;48.448;9.216;2023-04-27T03:13:37;95441.84;;;8.32;100.00
4590;BME280;2307;48.448;9.216;2023-04-27T03:16:08;95439.22;;;8.32;100.00
4590;BME280;2307;48.448;9.216;2023-04-27T03:18:35;95442.50;;;8.28;100.00
4590;BME280;2307;48.448;9.216;2023-04-27T03:21:05;95442.72;;;8.26;100.00
4590;BME280;2307;48.448;9.216;2023-04-27T03:23:33;95440.94;;;8.20;100.00
4590;BME280;2307;48.448;9.216;2023-04-27T03:26:00;95442.50;;;8.28;100.00
4590;BME280;2307;48.448;9.216;2023-04-27T03:28:26;95448.56;;;8.28;100.00
4590;BME280;2307;48.448;9.216;2023-04-27T03:30:53;95445.78;;;8.23;100.00
4590;BME280;2307;48.448;9.216;2023-04-27T03:33:19;95447.09;;;8.14;100.00
4590;BME280;2307;48.448;9.216;2023-04-27T03:35:53;95450.31;;;8.16;100.00
4590;BME280;2307;48.448;9.216;2023-04-27T03:38:19;95450.66;;;8.20;100.00
4590;BME280;2307;48.448;9.216;2023-04-27T03:40:47;95456.81;;;8.14;100.00
4590;BME280;2307;48.448;9.216;2023-04-27T03:43:13;95456.00;;;8.13;100.00
4590;BME280;2307;48.448;9.216;2023-04-27T03:45:40;95450.03;;;8.24;100.00
4590;BME280;2307;48.448;9.216;2023-04-27T03:48:06;95456.47;;;8.28;100.00
4590;BME280;2307;48.448;9.216;2023-04-27T03:50:33;95448.13;;;8.31;100.00
4590;BME280;2307;48.448;9.216;2023-04-27T03:52:59;95452.38;;;8.32;100.00
4590;BME280;2307;48.448;9.216;2023-04-27T03:55:26;95456.34;;;8.41;100.00
4590;BME280;2307;48.448;9.216;2023-04-27T03:57:53;95453.13;;;8.39;100.00
4590;BME280;2307;48.448;9.216;2023-04-27T04:00:20;95457.72;;;8.44;100.00
4590;BME280;2307;48.448;9.216;2023-04-27T04:02:46;95456.19;;;8.36;100.00
4590;BME280;2307;48.448;9.216;2023-04-27T04:05:13;95464.22;;;8.41;100.00
4590;BME280;2307;48.448;9.216;2023-04-27T04:07:39;95462.59;;;8.40;100.00
4590;BME280;2307;48.448;9.216;2023-04-27T04:10:07;95457.66;;;8.32;100.00
4590;BME280;2307;48.448;9.216;2023-04-27T04:12:34;95457.00;;;8.37;100.00
4590;BME280;2307;48.448;9.216;2023-04-27T04:15:02;95462.59;;;8.40;100.00
4590;BME280;2307;48.448;9.216;2023-04-27T04:17:29;95455.31;;;8.42;100.00
4590;BME280;2307;48.448;9.216;2023-04-27T04:19:57;95453.69;;;8.41;100.00
4590;BME280;2307;48.448;9.216;2023-04-27T04:22:24;95462.47;;;8.35;100.00
4590;BME280;2307;48.448;9.216;2023-04-27T04:24:51;95465.03;;;8.42;100.00
4590;BME280;2307;48.448;9.216;2023-04-27T04:27:17;95461.97;;;8.45;100.00
4590;BME280;2307;48.448;9.216;2023-04-27T04:29:44;95467.88;;;8.40;100.00
4590;BME280;2307;48.448;9.216;2023-04-27T04:32:12;95461.75;;;8.46;100.00
4590;BME280;2307;48.448;9.216;2023-04-27T04:34:41;95462.91;;;8.50;100.00
4590;BME280;2307;48.448;9.216;2023-04-27T04:37:08;95463.34;;;8.47;100.00
4590;BME280;2307;48.448;9.216;2023-04-27T04:39:34;95464.66;;;8.38;100.00
4590;BME280;2307;48.448;9.216;2023-04-27T04:42:01;95473.22;;;8.34;100.00
4590;BME280;2307;48.448;9.216;2023-04-27T04:44:28;95478.06;;;8.37;100.00
4590;BME280;2307;48.448;9.216;2023-04-27T04:46:54;95469.19;;;8.31;100.00
4590;BME280;2307;48.448;9.216;2023-04-27T04:49:22;95475.34;;;8.43;100.00
4590;BME280;2307;48.448;9.216;2023-04-27T04:51:49;95476.75;;;8.46;100.00
4590;BME280;2307;48.448;9.216;2023-04-27T04:54:15;95480.75;;;8.48;100.00
4590;BME280;2307;48.448;9.216;2023-04-27T04:56:42;95476.31;;;8.49;100.00
4590;BME280;2307;48.448;9.216;2023-04-27T04:59:08;95478.00;;;8.43;100.00
4590;BME280;2307;48.448;9.216;2023-04-27T05:01:34;95481.63;;;8.42;100.00
4590;BME280;2307;48.448;9.216;2023-04-27T05:04:01;95485.66;;;8.45;100.00
4590;BME280;2307;48.448;9.216;2023-04-27T05:06:29;95484.56;;;8.52;100.00
4590;BME280;2307;48.448;9.216;2023-04-27T05:08:55;95479.88;;;8.54;100.00
4590;BME280;2307;48.448;9.216;2023-04-27T05:11:22;95474.53;;;8.61;100.00
4590;BME280;2307;48.448;9.216;2023-04-27T05:13:48;95481.41;;;8.62;100.00
4590;BME280;2307;48.448;9.216;2023-04-27T05:16:15;95471.25;;;8.66;100.00
4590;BME280;2307;48.448;9.216;2023-04-27T05:18:41;95479.16;;;8.66;100.00
4590;BME280;2307;48.448;9.216;2023-04-27T05:21:12;95477.03;;;8.56;100.00
4590;BME280;2307;48.448;9.216;2023-04-27T05:23:40;95475.50;;;8.48;100.00
4590;BME280;2307;48.448;9.216;2023-04-27T05:26:10;95478.69;;;8.50;100.00
4590;BME280;2307;48.448;9.216;2023-04-27T05:28:36;95481.34;;;8.69;100.00
4590;BME280;2307;48.448;9.216;2023-04-27T05:31:02;95484.56;;;8.71;100.00
4590;BME280;2307;48.448;9.216;2023-04-27T05:33:29;95487.31;;;8.76;100.00
4590;BME280;2307;48.448;9.216;2023-04-27T05:35:55;95480.16;;;8.65;100.00
4590;BME280;2307;48.448;9.216;2023-04-27T05:38:22;95478.72;;;8.69;100.00
4590;BME280;2307;48.448;9.216;2023-04-27T05:40:54;95477.75;;;8.63;100.00
4590;BME280;2307;48.448;9.216;2023-04-27T05:43:20;95483.16;;;8.68;100.00
4590;BME280;2307;48.448;9.216;2023-04-27T05:45:47;95486.63;;;8.69;100.00
4590;BME280;2307;48.448;9.216;2023-04-27T05:48:13;95483.00;;;8.63;100.00
4590;BME280;2307;48.448;9.216;2023-04-27T05:50:40;95484.13;;;8.74;100.00
4590;BME280;2307;48.448;9.216;2023-04-27T05:53:06;95483.22;;;8.80;100.00
4590;BME280;2307;48.448;9.216;2023-04-27T05:55:32;95486.88;;;8.79;100.00
4590;BME280;2307;48.448;9.216;2023-04-27T05:58:01;95492.88;;;8.86;100.00
4590;BME280;2307;48.448;9.216;2023-04-27T06:00:27;95488.22;;;8.88;100.00
4590;BME280;2307;48.448;9.216;2023-04-27T06:02:54;95491.53;;;8.95;100.00
4590;BME280;2307;48.448;9.216;2023-04-27T06:05:20;95499.59;;;9.00;100.00
4590;BME280;2307;48.448;9.216;2023-04-27T06:07:47;95501.19;;;9.01;100.00
4590;BME280;2307;48.448;9.216;2023-04-27T06:10:14;95501.72;;;9.10;100.00
4590;BME280;2307;48.448;9.216;2023-04-27T06:12:41;95504.94;;;9.23;100.00
4590;BME280;2307;48.448;9.216;2023-04-27T06:15:09;95516.00;;;9.32;100.00
4590;BME280;2307;48.448;9.216;2023-04-27T06:17:35;95507.66;;;9.35;100.00
4590;BME280;2307;48.448;9.216;2023-04-27T06:20:02;95517.66;;;9.44;100.00
4590;BME280;2307;48.448;9.216;2023-04-27T06:22:30;95516.75;;;9.50;100.00
4590;BME280;2307;48.448;9.216;2023-04-27T06:24:57;95524.31;;;9.58;100.00
4590;BME280;2307;48.448;9.216;2023-04-27T06:27:23;95522.19;;;9.67;100.00
4590;BME280;2307;48.448;9.216;2023-04-27T06:29:50;95522.56;;;9.82;96.03
4590;BME280;2307;48.448;9.216;2023-04-27T06:32:18;95532.88;;;9.84;92.28
4590;BME280;2307;48.448;9.216;2023-04-27T06:34:45;95539.78;;;9.85;91.43
4590;BME280;2307;48.448;9.216;2023-04-27T06:37:11;95548.50;;;9.97;96.96
4590;BME280;2307;48.448;9.216;2023-04-27T06:39:39;95544.50;;;10.06;88.90
4590;BME280;2307;48.448;9.216;2023-04-27T06:42:05;95542.56;;;10.13;89.43
4590;BME280;2307;48.448;9.216;2023-04-27T06:44:32;95543.28;;;10.20;90.17
4590;BME280;2307;48.448;9.216;2023-04-27T06:46:58;95539.03;;;10.31;86.54
4590;BME280;2307;48.448;9.216;2023-04-27T06:49:26;95534.69;;;10.48;94.70
4590;BME280;2307;48.448;9.216;2023-04-27T06:51:52;95533.41;;;10.50;92.77
4590;BME280;2307;48.448;9.216;2023-04-27T06:54:19;95540.88;;;10.53;84.77
4590;BME280;2307;48.448;9.216;2023-04-27T06:56:45;95536.63;;;10.64;76.51
4590;BME280;2307;48.448;9.216;2023-04-27T06:59:12;95542.34;;;10.73;75.31
4590;BME280;2307;48.448;9.216;2023-04-27T07:01:38;95541.34;;;10.74;79.16
4590;BME280;2307;48.448;9.216;2023-04-27T07:04:05;95532.56;;;10.85;80.04
4590;BME280;2307;48.448;9.216;2023-04-27T07:06:33;95542.44;;;10.89;87.08
4590;BME280;2307;48.448;9.216;2023-04-27T07:08:59;95537.50;;;10.93;80.72
4590;BME280;2307;48.448;9.216;2023-04-27T07:11:25;95535.81;;;10.87;85.08
4590;BME280;2307;48.448;9.216;2023-04-27T07:13:52;95532.00;;;10.83;87.95
4590;BME280;2307;48.448;9.216;2023-04-27T07:16:19;95538.44;;;10.87;87.43
4590;BME280;2307;48.448;9.216;2023-04-27T07:18:45;95533.69;;;11.00;94.72
4590;BME280;2307;48.448;9.216;2023-04-27T07:21:11;95536.66;;;11.04;92.80
4590;BME280;2307;48.448;9.216;2023-04-27T07:23:40;95538.06;;;11.06;86.59
4590;BME280;2307;48.448;9.216;2023-04-27T07:26:07;95532.09;;;10.99;86.44
4590;BME280;2307;48.448;9.216;2023-04-27T07:28:34;95537.72;;;11.03;93.68
4590;BME280;2307;48.448;9.216;2023-04-27T07:31:02;95532.31;;;11.09;89.99
4590;BME280;2307;48.448;9.216;2023-04-27T07:33:29;95538.63;;;11.08;91.65
4590;BME280;2307;48.448;9.216;2023-04-27T07:35:56;95531.97;;;11.06;89.12
4590;BME280;2307;48.448;9.216;2023-04-27T07:38:23;95536.19;;;11.18;89.32
4590;BME280;2307;48.448;9.216;2023-04-27T07:40:50;95536.38;;;11.29;84.62
4590;BME280;2307;48.448;9.216;2023-04-27T07:43:18;95531.75;;;11.36;85.18
4590;BME280;2307;48.448;9.216;2023-04-27T07:45:47;95537.84;;;11.36;86.03
4590;BME280;2307;48.448;9.216;2023-04-27T07:48:13;95533.41;;;11.53;84.88
4590;BME280;2307;48.448;9.216;2023-04-27T07:50:40;95534.63;;;11.62;71.65
4590;BME280;2307;48.448;9.216;2023-04-27T07:53:06;95538.13;;;11.80;65.50
4590;BME280;2307;48.448;9.216;2023-04-27T07:55:33;95536.78;;;11.65;76.37
4590;BME280;2307;48.448;9.216;2023-04-27T07:58:01;95536.47;;;11.62;76.41
4590;BME280;2307;48.448;9.216;2023-04-27T08:00:27;95536.59;;;11.55;75.22
4590;BME280;2307;48.448;9.216;2023-04-27T08:02:54;95535.88;;;11.71;72.72
4590;BME280;2307;48.448;9.216;2023-04-27T08:05:20;95542.78;;;11.73;73.60
4590;BME280;2307;48.448;9.216;2023-04-27T08:07:47;95549.34;;;11.70;70.06
4590;BME280;2307;48.448;9.216;2023-04-27T08:10:13;95536.94;;;11.87;67.32
4590;BME280;2307;48.448;9.216;2023-04-27T08:12:40;95540.25;;;11.94;66.20
4590;BME280;2307;48.448;9.216;2023-04-27T08:15:08;95544.56;;;11.84;69.87
4590;BME280;2307;48.448;9.216;2023-04-27T08:17:35;95539.75;;;11.97;74.47
4590;BME280;2307;48.448;9.216;2023-04-27T08:20:05;95536.72;;;12.05;80.34
4590;BME280;2307;48.448;9.216;2023-04-27T08:22:32;95539.13;;;12.23;70.61
4590;BME280;2307;48.448;9.216;2023-04-27T08:24:58;95535.25;;;12.31;64.53
4590;BME280;2307;48.448;9.216;2023-04-27T08:27:24;95532.72;;;12.36;67.93
4590;BME280;2307;48.448;9.216;2023-04-27T08:29:51;95529.97;;;12.48;70.33
4590;BME280;2307;48.448;9.216;2023-04-27T08:32:19;95532.66;;;12.69;70.67
4590;BME280;2307;48.448;9.216;2023-04-27T08:34:45;95531.03;;;12.68;66.60
4590;BME280;2307;48.448;9.216;2023-04-27T08:37:12;95532.84;;;12.85;64.18
4590;BME280;2307;48.448;9.216;2023-04-27T08:39:38;95527.13;;;12.93;61.30
4590;BME280;2307;48.448;9.216;2023-04-27T08:42:11;95530.97;;;13.02;63.77
4590;BME280;2307;48.448;9.216;2023-04-27T08:44:38;95522.09;;;13.13;62.51
4590;BME280;2307;48.448;9.216;2023-04-27T08:47:05;95522.09;;;13.13;61.07
4590;BME280;2307;48.448;9.216;2023-04-27T08:49:34;95530.84;;;13.35;64.72
4590;BME280;2307;48.448;9.216;2023-04-27T08:52:02;95528.94;;;13.52;60.75
4590;BME280;2307;48.448;9.216;2023-04-27T08:54:29;95527.28;;;13.46;57.48
4590;BME280;2307;48.448;9.216;2023-04-27T08:56:55;95530.88;;;13.62;60.38
4590;BME280;2307;48.448;9.216;2023-04-27T08:59:22;95529.78;;;13.84;61.59
4590;BME280;2307;48.448;9.216;2023-04-27T09:01:48;95526.09;;;13.86;54.68
4590;BME280;2307;48.448;9.216;2023-04-27T09:04:15;95525.06;;;13.92;56.38
4590;BME280;2307;48.448;9.216;2023-04-27T09:06:43;95527.03;;;14.01;54.26
4590;BME280;2307;48.448;9.216;2023-04-27T09:09:19;95521.03;;;14.16;53.98
4590;BME280;2307;48.448;9.216;2023-04-27T09:11:46;95523.75;;;14.26;52.99
4590;BME280;2307;48.448;9.216;2023-04-27T09:14:15;95523.78;;;14.31;53.65
4590;BME280;2307;48.448;9.216;2023-04-27T09:16:41;95529.97;;;14.36;50.98
4590;BME280;2307;48.448;9.216;2023-04-27T09:19:08;95517.50;;;14.37;53.24
4590;BME280;2307;48.448;9.216;2023-04-27T09:21:35;95519.47;;;14.52;53.43
4590;BME280;2307;48.448;9.216;2023-04-27T09:24:09;95522.06;;;14.47;50.35
4590;BME280;2307;48.448;9.216;2023-04-27T09:26:36;95518.00;;;14.34;50.33
4590;BME280;2307;48.448;9.216;2023-04-27T09:29:03;95530.03;;;14.15;51.04
4590;BME280;2307;48.448;9.216;2023-04-27T09:31:29;95526.97;;;14.28;52.08
4590;BME280;2307;48.448;9.216;2023-04-27T09:33:56;95518.28;;;14.38;50.70
4590;BME280;2307;48.448;9.216;2023-04-27T09:36:22;95524.06;;;14.61;51.29
4590;BME280;2307;48.448;9.216;2023-04-27T09:38:50;95516.53;;;14.53;53.74
4590;BME280;2307;48.448;9.216;2023-04-27T09:41:18;95510.97;;;14.97;57.78
4590;BME280;2307;48.448;9.216;2023-04-27T09:43:45;95516.81;;;15.04;54.44
4590;BME280;2307;48.448;9.216;2023-04-27T09:46:12;95514.44;;;15.07;56.50
4590;BME280;2307;48.448;9.216;2023-04-27T09:48:38;95512.06;;;15.11;55.56
4590;BME280;2307;48.448;9.216;2023-04-27T09:51:05;95519.03;;;15.22;53.02
4590;BME280;2307;48.448;9.216;2023-04-27T09:53:32;95513.69;;;15.12;53.77
4590;BME280;2307;48.448;9.216;2023-04-27T09:56:05;95516.34;;;15.12;54.11
4590;BME280;2307;48.448;9.216;2023-04-27T09:58:52;95510.19;;;15.06;59.92
4590;BME280;2307;48.448;9.216;2023-04-27T10:01:23;95513.09;;;15.00;60.25
4590;BME280;2307;48.448;9.216;2023-04-27T10:03:55;95517.53;;;14.84;59.34
4590;BME280;2307;48.448;9.216;2023-04-27T10:06:35;95510.91;;;14.86;55.43
4590;BME280;2307;48.448;9.216;2023-04-27T10:09:08;95518.88;;;14.92;53.23
4590;BME280;2307;48.448;9.216;2023-04-27T10:11:38;95515.63;;;14.79;51.69
4590;BME280;2307;48.448;9.216;2023-04-27T10:14:07;95510.38;;;14.89;54.47
4590;BME280;2307;48.448;9.216;2023-04-27T10:16:38;95521.56;;;14.92;52.60
4590;BME280;2307;48.448;9.216;2023-04-27T10:19:07;95513.09;;;15.05;55.43
4590;BME280;2307;48.448;9.216;2023-04-27T10:21:35;95512.41;;;15.24;53.19
4590;BME280;2307;48.448;9.216;2023-04-27T10:24:05;95512.16;;;15.31;50.07
4590;BME280;2307;48.448;9.216;2023-04-27T10:26:32;95515.97;;;15.55;48.48
4590;BME280;2307;48.448;9.216;2023-04-27T10:29:03;95518.69;;;15.75;45.28
4590;BME280;2307;48.448;9.216;2023-04-27T10:31:32;95510.16;;;15.83;45.17
4590;BME280;2307;48.448;9.216;2023-04-27T10:34:05;95521.38;;;15.90;46.13
4590;BME280;2307;48.448;9.216;2023-04-27T10:36:35;95516.03;;;15.95;44.53
4590;BME280;2307;48.448;9.216;2023-04-27T10:39:02;95525.13;;;16.10;46.08
4590;BME280;2307;48.448;9.216;2023-04-27T10:41:47;95521.88;;;15.82;44.91
4590;BME280;2307;48.448;9.216;2023-04-27T10:44:15;95515.50;;;15.83;45.12
4590;BME280;2307;48.448;9.216;2023-04-27T10:46:52;95509.41;;;16.03;45.96
4590;BME280;2307;48.448;9.216;2023-04-27T10:49:21;95515.53;;;16.04;44.71
4590;BME280;2307;48.448;9.216;2023-04-27T10:51:48;95517.13;;;16.25;45.44
4590;BME280;2307;48.448;9.216;2023-04-27T10:54:15;95509.66;;;16.12;44.20
4590;BME280;2307;48.448;9.216;2023-04-27T10:56:41;95519.78;;;16.50;45.32
4590;BME280;2307;48.448;9.216;2023-04-27T10:59:08;95518.16;;;16.49;45.18
4590;BME280;2307;48.448;9.216;2023-04-27T11:01:34;95510.19;;;16.24;45.46
4590;BME280;2307;48.448;9.216;2023-04-27T11:04:03;95506.19;;;16.11;44.49
4590;BME280;2307;48.448;9.216;2023-04-27T11:06:30;95514.47;;;16.25;44.58
4590;BME280;2307;48.448;9.216;2023-04-27T11:08:57;95508.59;;;16.18;45.69
4590;BME280;2307;48.448;9.216;2023-04-27T11:11:23;95499.78;;;16.37;46.49
4590;BME280;2307;48.448;9.216;2023-04-27T11:13:50;95519.25;;;16.73;45.61
4590;BME280;2307;48.448;9.216;2023-04-27T11:16:17;95509.66;;;16.67;44.61
4590;BME280;2307;48.448;9.216;2023-04-27T11:18:44;95504.53;;;16.86;46.39
4590;BME280;2307;48.448;9.216;2023-04-27T11:21:12;95509.09;;;16.75;45.48
4590;BME280;2307;48.448;9.216;2023-04-27T11:23:39;95517.63;;;16.72;44.30
4590;BME280;2307;48.448;9.216;2023-04-27T11:26:09;95511.25;;;16.68;45.20
4590;BME280;2307;48.448;9.216;2023-04-27T11:28:35;95509.63;;;16.82;44.83
4590;BME280;2307;48.448;9.216;2023-04-27T11:31:02;95502.41;;;16.93;44.24
4590;BME280;2307;48.448;9.216;2023-04-27T11:33:29;95497.88;;;16.88;44.53
4590;BME280;2307;48.448;9.216;2023-04-27T11:35:55;95495.72;;;16.95;45.65
4590;BME280;2307;48.448;9.216;2023-04-27T11:38:23;95497.53;;;17.15;43.46
4590;BME280;2307;48.448;9.216;2023-04-27T11:41:00;95501.97;;;17.30;43.40
4590;BME280;2307;48.448;9.216;2023-04-27T11:43:26;95500.38;;;17.29;43.61
4590;BME280;2307;48.448;9.216;2023-04-27T11:45:54;95498.97;;;17.41;45.17
4590;BME280;2307;48.448;9.216;2023-04-27T11:48:21;95506.34;;;17.70;42.43
4590;BME280;2307;48.448;9.216;2023-04-27T11:50:48;95510.50;;;17.32;41.23
4590;BME280;2307;48.448;9.216;2023-04-27T11:53:15;95512.72;;;17.10;42.17
4590;BME280;2307;48.448;9.216;2023-04-27T11:55:43;95515.25;;;16.76;42.88
4590;BME280;2307;48.448;9.216;2023-04-27T11:58:13;95516.06;;;16.56;43.79
4590;BME280;2307;48.448;9.216;2023-04-27T12:00:39;95507.28;;;16.35;44.04
4590;BME280;2307;48.448;9.216;2023-04-27T12:03:06;95508.06;;;16.56;44.89
4590;BME280;2307;48.448;9.216;2023-04-27T12:05:32;95495.25;;;16.73;43.36
4590;BME280;2307;48.448;9.216;2023-04-27T12:07:59;95484.91;;;17.31;45.97
4590;BME280;2307;48.448;9.216;2023-04-27T12:10:25;95491.72;;;18.01;46.89
4590;BME280;2307;48.448;9.216;2023-04-27T12:12:53;95485.72;;;18.48;45.27
4590;BME280;2307;48.448;9.216;2023-04-27T12:15:20;95481.72;;;18.74;42.55
4590;BME280;2307;48.448;9.216;2023-04-27T12:17:46;95480.88;;;19.26;42.56
4590;BME280;2307;48.448;9.216;2023-04-27T12:20:12;95484.41;;;19.22;40.83
4590;BME280;2307;48.448;9.216;2023-04-27T12:22:39;95483.84;;;19.25;40.82
4590;BME280;2307;48.448;9.216;2023-04-27T12:25:06;95481.41;;;18.52;40.25
4590;BME280;2307;48.448;9.216;2023-04-27T12:27:32;95480.63;;;18.51;40.96
4590;BME280;2307;48.448;9.216;2023-04-27T12:30:00;95486.91;;;18.66;41.92
4590;BME280;2307;48.448;9.216;2023-04-27T12:32:26;95482.91;;;18.63;41.45
4590;BME280;2307;48.448;9.216;2023-04-27T12:34:53;95483.75;;;18.58;41.60
4590;BME280;2307;48.448;9.216;2023-04-27T12:37:19;95482.50;;;18.46;41.61
4590;BME280;2307;48.448;9.216;2023-04-27T12:39:46;95482.81;;;18.73;42.30
4590;BME280;2307;48.448;9.216;2023-04-27T12:42:13;95478.59;;;18.91;39.25
4590;BME280;2307;48.448;9.216;2023-04-27T12:44:39;95484.03;;;18.86;39.66
4590;BME280;2307;48.448;9.216;2023-04-27T12:47:07;95482.94;;;19.10;40.04
4590;BME280;2307;48.448;9.216;2023-04-27T12:49:34;95479.28;;;19.01;39.47
4590;BME280;2307;48.448;9.216;2023-04-27T12:52:00;95486.81;;;18.99;39.64
4590;BME280;2307;48.448;9.216;2023-04-27T12:54:27;95477.03;;;18.90;39.85
4590;BME280;2307;48.448;9.216;2023-04-27T12:56:53;95476.03;;;18.81;40.75
4590;BME280;2307;48.448;9.216;2023-04-27T12:59:20;95482.81;;;18.73;42.74
4590;BME280;2307;48.448;9.216;2023-04-27T13:01:46;95478.59;;;18.67;41.22
4590;BME280;2307;48.448;9.216;2023-04-27T13:04:17;95473.75;;;19.17;42.68
4590;BME280;2307;48.448;9.216;2023-04-27T13:06:44;95464.06;;;19.21;39.86
4590;BME280;2307;48.448;9.216;2023-04-27T13:09:11;95456.00;;;19.44;38.58
4590;BME280;2307;48.448;9.216;2023-04-27T13:11:38;95463.41;;;19.71;37.98
4590;BME280;2307;48.448;9.216;2023-04-27T13:14:04;95456.41;;;19.56;38.45
4590;BME280;2307;48.448;9.216;2023-04-27T13:16:31;95456.47;;;19.51;39.24
4590;BME280;2307;48.448;9.216;2023-04-27T13:18:57;95453.50;;;19.29;38.55
4590;BME280;2307;48.448;9.216;2023-04-27T13:21:25;95451.59;;;19.11;39.19
4590;BME280;2307;48.448;9.216;2023-04-27T13:23:52;95451.56;;;19.35;39.16